sensor_id;sensor_type;location;lat;lon;timestamp;temperature;humidity
23827;DHT22;12094;50.822;4.376;2022-11-15T00:02:33;12.00;99.90
23827;DHT22;12094;50.822;4.376;2022-11-15T00:05:19;12.00;99.90
23827;DHT22;12094;50.822;4.376;2022-11-15T00:08:05;12.00;99.90
23827;DHT22;12094;50.822;4.376;2022-11-15T00:10:55;12.00;99.90
23827;DHT22;12094;50.822;4.376;2022-11-15T00:13:42;12.00;99.90
23827;DHT22;12094;50.822;4.376;2022-11-15T00:16:28;12.00;99.90
23827;DHT22;12094;50.822;4.376;2022-11-15T00:19:15;12.00;99.90
23827;DHT22;12094;50.822;4.376;2022-11-15T00:22:00;12.00;99.90
23827;DHT22;12094;50.822;4.376;2022-11-15T00:24:46;12.00;99.90
23827;DHT22;12094;50.822;4.376;2022-11-15T00:27:31;12.00;99.90
23827;DHT22;12094;50.822;4.376;2022-11-15T00:30:17;12.00;99.90
23827;DHT22;12094;50.822;4.376;2022-11-15T00:33:06;12.00;99.90
23827;DHT22;12094;50.822;4.376;2022-11-15T00:35:52;12.00;99.90
23827;DHT22;12094;50.822;4.376;2022-11-15T00:38:39;12.20;99.90
23827;DHT22;12094;50.822;4.376;2022-11-15T00:41:27;12.20;99.90
23827;DHT22;12094;50.822;4.376;2022-11-15T00:44:12;12.10;99.90
23827;DHT22;12094;50.822;4.376;2022-11-15T00:46:58;12.20;99.90
23827;DHT22;12094;50.822;4.376;2022-11-15T00:49:44;12.20;99.90
23827;DHT22;12094;50.822;4.376;2022-11-15T00:52:29;12.20;99.90
23827;DHT22;12094;50.822;4.376;2022-11-15T00:55:16;12.20;99.90
23827;DHT22;12094;50.822;4.376;2022-11-15T00:58:05;12.30;99.90
23827;DHT22;12094;50.822;4.376;2022-11-15T01:00:51;12.20;99.90
23827;DHT22;12094;50.822;4.376;2022-11-15T01:03:40;12.20;99.90
23827;DHT22;12094;50.822;4.376;2022-11-15T01:06:25;12.20;99.90
23827;DHT22;12094;50.822;4.376;2022-11-15T01:09:12;12.20;99.90
23827;DHT22;12094;50.822;4.376;2022-11-15T01:11:58;12.10;99.90
23827;DHT22;12094;50.822;4.376;2022-11-15T01:14:45;12.20;99.90
23827;DHT22;12094;50.822;4.376;2022-11-15T01:17:32;12.20;99.90
23827;DHT22;12094;50.822;4.376;2022-11-15T01:20:18;12.20;99.90
23827;DHT22;12094;50.822;4.376;2022-11-15T01:23:04;12.30;99.90
23827;DHT22;12094;50.822;4.376;2022-11-15T01:25:50;12.20;99.90
23827;DHT22;12094;50.822;4.376;2022-11-15T01:28:37;12.20;99.90
23827;DHT22;12094;50.822;4.376;2022-11-15T01:31:23;12.20;99.90
23827;DHT22;12094;50.822;4.376;2022-11-15T01:34:10;12.20;99.90
23827;DHT22;12094;50.822;4.376;2022-11-15T01:36:55;12.20;99.90
23827;DHT22;12094;50.822;4.376;2022-11-15T01:39:41;12.20;99.90
23827;DHT22;12094;50.822;4.376;2022-11-15T01:42:26;12.20;99.90
23827;DHT22;12094;50.822;4.376;2022-11-15T01:45:16;12.10;99.90
23827;DHT22;12094;50.822;4.376;2022-11-15T01:48:02;12.10;99.90
23827;DHT22;12094;50.822;4.376;2022-11-15T01:50:50;12.10;99.90
23827;DHT22;12094;50.822;4.376;2022-11-15T01:53:38;12.10;99.90
23827;DHT22;12094;50.822;4.376;2022-11-15T01:56:27;12.00;99.90
23827;DHT22;12094;50.822;4.376;2022-11-15T01:59:14;12.00;99.90
23827;DHT22;12094;50.822;4.376;2022-11-15T02:02:00;12.10;99.90
23827;DHT22;12094;50.822;4.376;2022-11-15T02:04:47;12.10;99.90
23827;DHT22;12094;50.822;4.376;2022-11-15T02:07:34;12.10;99.90
23827;DHT22;12094;50.822;4.376;2022-11-15T02:10:22;12.10;99.90
23827;DHT22;12094;50.822;4.376;2022-11-15T02:13:09;12.10;99.90
23827;DHT22;12094;50.822;4.376;2022-11-15T02:16:34;12.20;99.90
23827;DHT22;12094;50.822;4.376;2022-11-15T02:22:48;12.10;99.90
23827;DHT22;12094;50.822;4.376;2022-11-15T02:25:57;12.10;99.90
23827;DHT22;12094;50.822;4.376;2022-11-15T02:29:14;12.00;99.90
23827;DHT22;12094;50.822;4.376;2022-11-15T02:40:57;12.20;99.90
23827;DHT22;12094;50.822;4.376;2022-11-15T02:43:56;12.20;99.90
23827;DHT22;12094;50.822;4.376;2022-11-15T02:46:56;12.20;99.90
23827;DHT22;12094;50.822;4.376;2022-11-15T02:50:07;12.20;99.90
23827;DHT22;12094;50.822;4.376;2022-11-15T02:52:55;12.10;99.90
23827;DHT22;12094;50.822;4.376;2022-11-15T02:55:44;12.10;99.90
23827;DHT22;12094;50.822;4.376;2022-11-15T02:59:09;12.10;99.90
23827;DHT22;12094;50.822;4.376;2022-11-15T03:11:15;12.10;99.90
23827;DHT22;12094;50.822;4.376;2022-11-15T03:14:23;12.00;99.90
23827;DHT22;12094;50.822;4.376;2022-11-15T03:17:25;12.00;99.90
23827;DHT22;12094;50.822;4.376;2022-11-15T03:20:13;11.90;99.90
23827;DHT22;12094;50.822;4.376;2022-11-15T03:23:04;12.00;99.90
23827;DHT22;12094;50.822;4.376;2022-11-15T03:25:51;12.00;99.90
23827;DHT22;12094;50.822;4.376;2022-11-15T03:28:54;11.90;99.90
23827;DHT22;12094;50.822;4.376;2022-11-15T03:31:45;11.90;99.90
23827;DHT22;12094;50.822;4.376;2022-11-15T03:34:43;11.80;99.90
23827;DHT22;12094;50.822;4.376;2022-11-15T03:37:37;11.80;99.90
23827;DHT22;12094;50.822;4.376;2022-11-15T03:40:38;11.80;99.90
23827;DHT22;12094;50.822;4.376;2022-11-15T03:43:43;11.80;99.90
23827;DHT22;12094;50.822;4.376;2022-11-15T03:46:54;11.70;99.90
23827;DHT22;12094;50.822;4.376;2022-11-15T03:49:50;11.70;99.90
23827;DHT22;12094;50.822;4.376;2022-11-15T03:52:40;11.70;99.90
23827;DHT22;12094;50.822;4.376;2022-11-15T03:55:26;11.70;99.90
23827;DHT22;12094;50.822;4.376;2022-11-15T03:58:13;11.70;99.90
23827;DHT22;12094;50.822;4.376;2022-11-15T04:00:58;11.70;99.90
23827;DHT22;12094;50.822;4.376;2022-11-15T04:03:44;11.70;99.90
23827;DHT22;12094;50.822;4.376;2022-11-15T04:06:30;11.70;99.90
23827;DHT22;12094;50.822;4.376;2022-11-15T04:09:15;11.70;99.90
23827;DHT22;12094;50.822;4.376;2022-11-15T04:12:01;11.70;99.90
23827;DHT22;12094;50.822;4.376;2022-11-15T04:14:46;11.70;99.90
23827;DHT22;12094;50.822;4.376;2022-11-15T04:17:55;11.70;99.90
23827;DHT22;12094;50.822;4.376;2022-11-15T04:20:40;11.70;99.90
23827;DHT22;12094;50.822;4.376;2022-11-15T04:23:44;11.70;99.90
23827;DHT22;12094;50.822;4.376;2022-11-15T04:26:48;11.70;99.90
23827;DHT22;12094;50.822;4.376;2022-11-15T04:29:34;11.70;99.90
23827;DHT22;12094;50.822;4.376;2022-11-15T04:32:20;11.70;99.90
23827;DHT22;12094;50.822;4.376;2022-11-15T04:35:06;11.70;99.90
23827;DHT22;12094;50.822;4.376;2022-11-15T04:37:52;11.60;99.90
23827;DHT22;12094;50.822;4.376;2022-11-15T04:40:39;11.50;99.90
23827;DHT22;12094;50.822;4.376;2022-11-15T04:43:26;11.50;99.90
23827;DHT22;12094;50.822;4.376;2022-11-15T04:46:11;11.40;99.90
23827;DHT22;12094;50.822;4.376;2022-11-15T04:48:57;11.40;99.90
23827;DHT22;12094;50.822;4.376;2022-11-15T04:51:44;11.40;99.90
23827;DHT22;12094;50.822;4.376;2022-11-15T04:54:29;11.30;99.90
23827;DHT22;12094;50.822;4.376;2022-11-15T04:57:16;11.30;99.90
23827;DHT22;12094;50.822;4.376;2022-11-15T05:00:08;11.30;99.90
23827;DHT22;12094;50.822;4.376;2022-11-15T05:02:55;11.30;99.90
23827;DHT22;12094;50.822;4.376;2022-11-15T05:05:59;11.20;99.90
23827;DHT22;12094;50.822;4.376;2022-11-15T05:08:45;11.20;99.90
23827;DHT22;12094;50.822;4.376;2022-11-15T05:11:31;11.20;99.90
23827;DHT22;12094;50.822;4.376;2022-11-15T05:14:17;11.10;99.90
23827;DHT22;12094;50.822;4.376;2022-11-15T05:17:02;11.00;99.90
23827;DHT22;12094;50.822;4.376;2022-11-15T05:19:49;11.00;99.90
23827;DHT22;12094;50.822;4.376;2022-11-15T05:22:34;11.00;99.90
23827;DHT22;12094;50.822;4.376;2022-11-15T05:25:22;10.90;99.90
23827;DHT22;12094;50.822;4.376;2022-11-15T05:28:07;10.90;99.90
23827;DHT22;12094;50.822;4.376;2022-11-15T05:30:57;10.90;99.90
23827;DHT22;12094;50.822;4.376;2022-11-15T05:33:45;10.80;99.90
23827;DHT22;12094;50.822;4.376;2022-11-15T05:36:36;10.80;99.90
23827;DHT22;12094;50.822;4.376;2022-11-15T05:39:23;10.70;99.90
23827;DHT22;12094;50.822;4.376;2022-11-15T05:42:12;10.60;99.90
23827;DHT22;12094;50.822;4.376;2022-11-15T05:44:59;10.70;99.90
23827;DHT22;12094;50.822;4.376;2022-11-15T05:47:47;10.60;99.90
23827;DHT22;12094;50.822;4.376;2022-11-15T05:50:36;10.60;99.90
23827;DHT22;12094;50.822;4.376;2022-11-15T05:53:23;10.60;99.90
23827;DHT22;12094;50.822;4.376;2022-11-15T05:56:10;10.60;99.90
23827;DHT22;12094;50.822;4.376;2022-11-15T05:58:57;10.60;99.90
23827;DHT22;12094;50.822;4.376;2022-11-15T06:01:44;10.60;99.90
23827;DHT22;12094;50.822;4.376;2022-11-15T06:04:30;10.50;99.90
23827;DHT22;12094;50.822;4.376;2022-11-15T06:07:16;10.50;99.90
23827;DHT22;12094;50.822;4.376;2022-11-15T06:10:04;10.40;99.90
23827;DHT22;12094;50.822;4.376;2022-11-15T06:13:00;10.40;99.90
23827;DHT22;12094;50.822;4.376;2022-11-15T06:15:46;10.40;99.90
23827;DHT22;12094;50.822;4.376;2022-11-15T06:18:33;10.30;99.90
23827;DHT22;12094;50.822;4.376;2022-11-15T06:21:21;10.40;99.90
23827;DHT22;12094;50.822;4.376;2022-11-15T06:24:07;10.40;99.90
23827;DHT22;12094;50.822;4.376;2022-11-15T06:26:52;10.30;99.90
23827;DHT22;12094;50.822;4.376;2022-11-15T06:29:41;10.30;99.90
23827;DHT22;12094;50.822;4.376;2022-11-15T06:32:26;10.40;99.90
23827;DHT22;12094;50.822;4.376;2022-11-15T06:35:14;10.40;99.90
23827;DHT22;12094;50.822;4.376;2022-11-15T06:38:06;10.40;99.90
23827;DHT22;12094;50.822;4.376;2022-11-15T06:40:54;10.40;99.90
23827;DHT22;12094;50.822;4.376;2022-11-15T06:43:40;10.30;99.90
23827;DHT22;12094;50.822;4.376;2022-11-15T06:46:26;10.30;99.90
23827;DHT22;12094;50.822;4.376;2022-11-15T06:49:12;10.20;99.90
23827;DHT22;12094;50.822;4.376;2022-11-15T06:51:57;10.20;99.90
23827;DHT22;12094;50.822;4.376;2022-11-15T06:54:43;10.10;99.90
23827;DHT22;12094;50.822;4.376;2022-11-15T06:57:28;10.10;99.90
23827;DHT22;12094;50.822;4.376;2022-11-15T07:00:14;10.10;99.90
23827;DHT22;12094;50.822;4.376;2022-11-15T07:03:03;10.20;99.90
23827;DHT22;12094;50.822;4.376;2022-11-15T07:05:54;10.20;99.90
23827;DHT22;12094;50.822;4.376;2022-11-15T07:08:40;10.10;99.90
23827;DHT22;12094;50.822;4.376;2022-11-15T07:11:27;10.00;99.90
23827;DHT22;12094;50.822;4.376;2022-11-15T07:14:12;10.00;99.90
23827;DHT22;12094;50.822;4.376;2022-11-15T07:16:59;10.00;99.90
23827;DHT22;12094;50.822;4.376;2022-11-15T07:19:44;10.00;99.90
23827;DHT22;12094;50.822;4.376;2022-11-15T07:22:33;10.00;99.90
23827;DHT22;12094;50.822;4.376;2022-11-15T07:25:19;10.00;99.90
23827;DHT22;12094;50.822;4.376;2022-11-15T07:28:06;10.10;99.90
23827;DHT22;12094;50.822;4.376;2022-11-15T07:30:52;10.00;99.90
23827;DHT22;12094;50.822;4.376;2022-11-15T07:33:39;10.00;99.90
23827;DHT22;12094;50.822;4.376;2022-11-15T07:36:25;10.00;99.90
23827;DHT22;12094;50.822;4.376;2022-11-15T07:39:11;10.00;99.90
23827;DHT22;12094;50.822;4.376;2022-11-15T07:41:57;10.00;99.90
23827;DHT22;12094;50.822;4.376;2022-11-15T07:45:01;10.00;99.90
23827;DHT22;12094;50.822;4.376;2022-11-15T07:47:51;10.00;99.90
23827;DHT22;12094;50.822;4.376;2022-11-15T07:50:41;10.00;99.90
23827;DHT22;12094;50.822;4.376;2022-11-15T07:53:29;10.00;99.90
23827;DHT22;12094;50.822;4.376;2022-11-15T07:56:16;10.00;99.90
23827;DHT22;12094;50.822;4.376;2022-11-15T07:59:04;10.00;99.90
23827;DHT22;12094;50.822;4.376;2022-11-15T08:01:51;10.00;99.90
23827;DHT22;12094;50.822;4.376;2022-11-15T08:04:37;10.00;99.90
23827;DHT22;12094;50.822;4.376;2022-11-15T08:07:23;10.00;99.90
23827;DHT22;12094;50.822;4.376;2022-11-15T08:10:09;10.00;99.90
23827;DHT22;12094;50.822;4.376;2022-11-15T08:13:06;10.10;99.90
23827;DHT22;12094;50.822;4.376;2022-11-15T08:15:56;10.00;99.90
23827;DHT22;12094;50.822;4.376;2022-11-15T08:18:42;10.10;99.90
23827;DHT22;12094;50.822;4.376;2022-11-15T08:21:31;10.10;99.90
23827;DHT22;12094;50.822;4.376;2022-11-15T08:24:17;10.10;99.90
23827;DHT22;12094;50.822;4.376;2022-11-15T08:27:02;10.20;99.90
23827;DHT22;12094;50.822;4.376;2022-11-15T08:29:49;10.20;99.90
23827;DHT22;12094;50.822;4.376;2022-11-15T08:32:35;10.30;99.90
23827;DHT22;12094;50.822;4.376;2022-11-15T08:35:21;10.20;99.90
23827;DHT22;12094;50.822;4.376;2022-11-15T08:38:13;10.20;99.90
23827;DHT22;12094;50.822;4.376;2022-11-15T08:41:02;10.30;99.90
23827;DHT22;12094;50.822;4.376;2022-11-15T08:43:48;10.40;99.90
23827;DHT22;12094;50.822;4.376;2022-11-15T08:46:34;10.40;99.90
23827;DHT22;12094;50.822;4.376;2022-11-15T08:49:20;10.30;99.90
23827;DHT22;12094;50.822;4.376;2022-11-15T08:52:05;10.40;99.90
23827;DHT22;12094;50.822;4.376;2022-11-15T08:54:52;10.40;99.90
23827;DHT22;12094;50.822;4.376;2022-11-15T08:57:38;10.40;99.90
23827;DHT22;12094;50.822;4.376;2022-11-15T09:00:24;10.30;99.90
23827;DHT22;12094;50.822;4.376;2022-11-15T09:03:09;10.40;99.90
23827;DHT22;12094;50.822;4.376;2022-11-15T09:06:00;10.40;99.90
23827;DHT22;12094;50.822;4.376;2022-11-15T09:08:46;10.60;99.90
23827;DHT22;12094;50.822;4.376;2022-11-15T09:11:32;10.70;99.90
23827;DHT22;12094;50.822;4.376;2022-11-15T09:14:18;10.60;99.90
23827;DHT22;12094;50.822;4.376;2022-11-15T09:17:06;10.50;99.90
23827;DHT22;12094;50.822;4.376;2022-11-15T09:19:52;10.60;99.90
23827;DHT22;12094;50.822;4.376;2022-11-15T09:22:40;10.60;99.90
23827;DHT22;12094;50.822;4.376;2022-11-15T09:25:26;10.70;99.90
23827;DHT22;12094;50.822;4.376;2022-11-15T09:28:12;10.60;99.90
23827;DHT22;12094;50.822;4.376;2022-11-15T09:30:58;10.70;99.90
23827;DHT22;12094;50.822;4.376;2022-11-15T09:33:45;10.80;99.90
23827;DHT22;12094;50.822;4.376;2022-11-15T09:36:31;10.80;99.90
23827;DHT22;12094;50.822;4.376;2022-11-15T09:39:16;10.90;99.90
23827;DHT22;12094;50.822;4.376;2022-11-15T09:50:44;11.20;99.90
23827;DHT22;12094;50.822;4.376;2022-11-15T09:56:24;11.30;99.90
23827;DHT22;12094;50.822;4.376;2022-11-15T10:04:18;11.40;99.90
23827;DHT22;12094;50.822;4.376;2022-11-15T10:07:19;11.40;99.90
23827;DHT22;12094;50.822;4.376;2022-11-15T10:09:53;11.50;99.90
23827;DHT22;12094;50.822;4.376;2022-11-15T10:12:20;11.50;99.90
23827;DHT22;12094;50.822;4.376;2022-11-15T10:14:49;11.50;99.90
23827;DHT22;12094;50.822;4.376;2022-11-15T10:17:30;11.50;99.90
23827;DHT22;12094;50.822;4.376;2022-11-15T10:22:52;12.00;99.90
23827;DHT22;12094;50.822;4.376;2022-11-15T10:28:13;12.60;99.90
23827;DHT22;12094;50.822;4.376;2022-11-15T10:30:43;12.90;99.90
23827;DHT22;12094;50.822;4.376;2022-11-15T10:35:46;13.60;99.90
23827;DHT22;12094;50.822;4.376;2022-11-15T10:38:14;13.70;99.90
23827;DHT22;12094;50.822;4.376;2022-11-15T10:40:41;13.60;99.90
23827;DHT22;12094;50.822;4.376;2022-11-15T10:45:37;13.40;99.90
23827;DHT22;12094;50.822;4.376;2022-11-15T10:50:43;13.00;99.90
23827;DHT22;12094;50.822;4.376;2022-11-15T10:53:38;13.00;99.90
23827;DHT22;12094;50.822;4.376;2022-11-15T10:56:11;12.90;99.90
23827;DHT22;12094;50.822;4.376;2022-11-15T10:58:39;12.90;99.90
23827;DHT22;12094;50.822;4.376;2022-11-15T11:01:14;13.00;99.90
23827;DHT22;12094;50.822;4.376;2022-11-15T11:03:44;12.90;99.90
23827;DHT22;12094;50.822;4.376;2022-11-15T11:06:18;12.90;99.90
23827;DHT22;12094;50.822;4.376;2022-11-15T11:09:04;12.80;99.90
23827;DHT22;12094;50.822;4.376;2022-11-15T11:11:47;12.60;99.90
23827;DHT22;12094;50.822;4.376;2022-11-15T11:14:30;12.60;99.90
23827;DHT22;12094;50.822;4.376;2022-11-15T11:31:14;13.00;99.90
23827;DHT22;12094;50.822;4.376;2022-11-15T11:37:14;13.30;99.90
23827;DHT22;12094;50.822;4.376;2022-11-15T11:43:09;13.30;99.90
23827;DHT22;12094;50.822;4.376;2022-11-15T11:51:40;13.10;99.90
23827;DHT22;12094;50.822;4.376;2022-11-15T11:56:51;13.10;99.90
23827;DHT22;12094;50.822;4.376;2022-11-15T12:02:21;13.00;99.90
23827;DHT22;12094;50.822;4.376;2022-11-15T12:04:54;13.00;99.90
23827;DHT22;12094;50.822;4.376;2022-11-15T12:07:29;13.20;99.90
23827;DHT22;12094;50.822;4.376;2022-11-15T12:15:17;13.10;99.90
23827;DHT22;12094;50.822;4.376;2022-11-15T12:17:45;13.10;99.90
23827;DHT22;12094;50.822;4.376;2022-11-15T12:20:23;13.10;99.90
23827;DHT22;12094;50.822;4.376;2022-11-15T12:22:58;13.00;99.90
23827;DHT22;12094;50.822;4.376;2022-11-15T12:28:37;13.10;99.90
23827;DHT22;12094;50.822;4.376;2022-11-15T12:34:38;12.90;99.90
23827;DHT22;12094;50.822;4.376;2022-11-15T12:45:31;13.10;99.90
23827;DHT22;12094;50.822;4.376;2022-11-15T12:50:56;13.20;99.90
23827;DHT22;12094;50.822;4.376;2022-11-15T12:58:58;13.40;99.90
23827;DHT22;12094;50.822;4.376;2022-11-15T13:07:54;13.50;99.90
23827;DHT22;12094;50.822;4.376;2022-11-15T13:17:52;13.70;99.90
23827;DHT22;12094;50.822;4.376;2022-11-15T13:20:26;13.70;99.90
23827;DHT22;12094;50.822;4.376;2022-11-15T13:23:02;13.50;99.90
23827;DHT22;12094;50.822;4.376;2022-11-15T13:31:19;13.70;99.90
23827;DHT22;12094;50.822;4.376;2022-11-15T13:33:47;13.60;99.90
23827;DHT22;12094;50.822;4.376;2022-11-15T13:36:20;13.60;99.90
23827;DHT22;12094;50.822;4.376;2022-11-15T13:39:31;13.50;99.90
23827;DHT22;12094;50.822;4.376;2022-11-15T13:41:59;13.60;99.90
23827;DHT22;12094;50.822;4.376;2022-11-15T13:44:31;13.50;99.90
23827;DHT22;12094;50.822;4.376;2022-11-15T13:47:14;13.50;99.90
23827;DHT22;12094;50.822;4.376;2022-11-15T13:49:42;13.60;99.90
23827;DHT22;12094;50.822;4.376;2022-11-15T13:52:16;13.70;99.90
23827;DHT22;12094;50.822;4.376;2022-11-15T13:54:51;13.70;99.90
23827;DHT22;12094;50.822;4.376;2022-11-15T13:57:29;13.80;99.90
23827;DHT22;12094;50.822;4.376;2022-11-15T14:00:01;13.80;99.90
23827;DHT22;12094;50.822;4.376;2022-11-15T14:02:39;13.70;99.90
23827;DHT22;12094;50.822;4.376;2022-11-15T14:05:32;13.70;99.90
23827;DHT22;12094;50.822;4.376;2022-11-15T14:08:04;13.70;99.90
23827;DHT22;12094;50.822;4.376;2022-11-15T14:10:40;13.60;99.90
23827;DHT22;12094;50.822;4.376;2022-11-15T14:13:27;13.60;99.90
23827;DHT22;12094;50.822;4.376;2022-11-15T14:15:54;13.50;99.90
23827;DHT22;12094;50.822;4.376;2022-11-15T14:18:45;13.50;99.90
23827;DHT22;12094;50.822;4.376;2022-11-15T14:21:12;13.60;99.90
23827;DHT22;12094;50.822;4.376;2022-11-15T14:23:40;13.50;99.90
23827;DHT22;12094;50.822;4.376;2022-11-15T14:26:26;13.50;99.90
23827;DHT22;12094;50.822;4.376;2022-11-15T14:28:53;13.50;99.90
23827;DHT22;12094;50.822;4.376;2022-11-15T14:31:20;13.40;99.90
23827;DHT22;12094;50.822;4.376;2022-11-15T14:33:48;13.40;99.90
23827;DHT22;12094;50.822;4.376;2022-11-15T14:36:17;13.40;99.90
23827;DHT22;12094;50.822;4.376;2022-11-15T14:38:45;13.30;99.90
23827;DHT22;12094;50.822;4.376;2022-11-15T14:41:24;13.20;99.90
23827;DHT22;12094;50.822;4.376;2022-11-15T14:43:52;13.20;99.90
23827;DHT22;12094;50.822;4.376;2022-11-15T14:46:19;13.20;99.90
23827;DHT22;12094;50.822;4.376;2022-11-15T14:48:46;13.20;99.90
23827;DHT22;12094;50.822;4.376;2022-11-15T14:51:16;13.10;99.90
23827;DHT22;12094;50.822;4.376;2022-11-15T14:53:44;13.10;99.90
23827;DHT22;12094;50.822;4.376;2022-11-15T14:56:12;13.10;99.90
23827;DHT22;12094;50.822;4.376;2022-11-15T14:58:40;13.00;99.90
23827;DHT22;12094;50.822;4.376;2022-11-15T15:01:20;13.10;99.90
23827;DHT22;12094;50.822;4.376;2022-11-15T15:03:48;13.00;99.90
23827;DHT22;12094;50.822;4.376;2022-11-15T15:06:15;13.10;99.90
23827;DHT22;12094;50.822;4.376;2022-11-15T15:08:45;13.00;99.90
23827;DHT22;12094;50.822;4.376;2022-11-15T15:11:28;12.90;99.90
23827;DHT22;12094;50.822;4.376;2022-11-15T15:13:56;12.90;99.90
23827;DHT22;12094;50.822;4.376;2022-11-15T15:16:24;12.90;99.90
23827;DHT22;12094;50.822;4.376;2022-11-15T15:18:53;12.80;99.90
23827;DHT22;12094;50.822;4.376;2022-11-15T15:21:27;12.80;99.90
23827;DHT22;12094;50.822;4.376;2022-11-15T15:24:02;12.80;99.90
23827;DHT22;12094;50.822;4.376;2022-11-15T15:26:29;12.80;99.90
23827;DHT22;12094;50.822;4.376;2022-11-15T15:29:00;12.80;99.90
23827;DHT22;12094;50.822;4.376;2022-11-15T15:31:27;12.70;99.90
23827;DHT22;12094;50.822;4.376;2022-11-15T15:33:53;12.70;99.90
23827;DHT22;12094;50.822;4.376;2022-11-15T15:36:21;12.70;99.90
23827;DHT22;12094;50.822;4.376;2022-11-15T15:38:48;12.60;99.90
23827;DHT22;12094;50.822;4.376;2022-11-15T15:41:16;12.70;99.90
23827;DHT22;12094;50.822;4.376;2022-11-15T15:43:44;12.60;99.90
23827;DHT22;12094;50.822;4.376;2022-11-15T15:46:14;12.70;99.90
23827;DHT22;12094;50.822;4.376;2022-11-15T15:48:41;12.60;99.90
23827;DHT22;12094;50.822;4.376;2022-11-15T15:51:08;12.60;99.90
23827;DHT22;12094;50.822;4.376;2022-11-15T15:53:47;12.60;99.90
23827;DHT22;12094;50.822;4.376;2022-11-15T15:56:15;12.70;99.90
23827;DHT22;12094;50.822;4.376;2022-11-15T15:58:43;12.60;99.90
23827;DHT22;12094;50.822;4.376;2022-11-15T16:01:10;12.50;99.90
23827;DHT22;12094;50.822;4.376;2022-11-15T16:03:37;12.60;99.90
23827;DHT22;12094;50.822;4.376;2022-11-15T16:06:04;12.60;99.90
23827;DHT22;12094;50.822;4.376;2022-11-15T16:08:31;12.60;99.90
23827;DHT22;12094;50.822;4.376;2022-11-15T16:11:18;12.50;99.90
23827;DHT22;12094;50.822;4.376;2022-11-15T16:13:45;12.60;99.90
23827;DHT22;12094;50.822;4.376;2022-11-15T16:16:13;12.50;99.90
23827;DHT22;12094;50.822;4.376;2022-11-15T16:18:40;12.50;99.90
23827;DHT22;12094;50.822;4.376;2022-11-15T16:21:08;12.60;99.90
23827;DHT22;12094;50.822;4.376;2022-11-15T16:23:35;12.60;99.90
23827;DHT22;12094;50.822;4.376;2022-11-15T16:26:25;12.70;99.90
23827;DHT22;12094;50.822;4.376;2022-11-15T16:28:54;12.60;99.90
23827;DHT22;12094;50.822;4.376;2022-11-15T16:31:21;12.60;99.90
23827;DHT22;12094;50.822;4.376;2022-11-15T16:33:49;12.50;99.90
23827;DHT22;12094;50.822;4.376;2022-11-15T16:36:23;12.60;99.90
23827;DHT22;12094;50.822;4.376;2022-11-15T16:38:58;12.50;99.90
23827;DHT22;12094;50.822;4.376;2022-11-15T16:41:26;12.60;99.90
23827;DHT22;12094;50.822;4.376;2022-11-15T16:43:54;12.50;99.90
23827;DHT22;12094;50.822;4.376;2022-11-15T16:46:26;12.50;99.90
23827;DHT22;12094;50.822;4.376;2022-11-15T16:48:53;12.50;99.90
23827;DHT22;12094;50.822;4.376;2022-11-15T16:51:21;12.50;99.90
23827;DHT22;12094;50.822;4.376;2022-11-15T16:53:50;12.50;99.90
23827;DHT22;12094;50.822;4.376;2022-11-15T16:58:46;12.50;99.90
23827;DHT22;12094;50.822;4.376;2022-11-15T17:01:25;12.50;99.90
23827;DHT22;12094;50.822;4.376;2022-11-15T17:03:53;12.50;99.90
23827;DHT22;12094;50.822;4.376;2022-11-15T17:06:21;12.50;99.90
23827;DHT22;12094;50.822;4.376;2022-11-15T17:08:52;12.50;99.90
23827;DHT22;12094;50.822;4.376;2022-11-15T17:11:20;12.50;99.90
23827;DHT22;12094;50.822;4.376;2022-11-15T17:13:48;12.50;99.90
23827;DHT22;12094;50.822;4.376;2022-11-15T17:16:17;12.40;99.90
23827;DHT22;12094;50.822;4.376;2022-11-15T17:18:44;12.40;99.90
23827;DHT22;12094;50.822;4.376;2022-11-15T17:21:18;12.40;99.90
23827;DHT22;12094;50.822;4.376;2022-11-15T17:23:45;12.40;99.90
23827;DHT22;12094;50.822;4.376;2022-11-15T17:26:14;12.50;99.90
23827;DHT22;12094;50.822;4.376;2022-11-15T17:29:02;12.50;99.90
23827;DHT22;12094;50.822;4.376;2022-11-15T17:31:30;12.40;99.90
23827;DHT22;12094;50.822;4.376;2022-11-15T17:34:00;12.40;99.90
23827;DHT22;12094;50.822;4.376;2022-11-15T17:36:28;12.50;99.90
23827;DHT22;12094;50.822;4.376;2022-11-15T17:38:57;12.50;99.90
23827;DHT22;12094;50.822;4.376;2022-11-15T17:41:28;12.50;99.90
23827;DHT22;12094;50.822;4.376;2022-11-15T17:43:58;12.50;99.90
23827;DHT22;12094;50.822;4.376;2022-11-15T17:46:30;12.50;99.90
23827;DHT22;12094;50.822;4.376;2022-11-15T17:48:58;12.60;99.90
23827;DHT22;12094;50.822;4.376;2022-11-15T17:51:27;12.50;99.90
23827;DHT22;12094;50.822;4.376;2022-11-15T17:53:56;12.50;99.90
23827;DHT22;12094;50.822;4.376;2022-11-15T17:56:25;12.50;99.90
23827;DHT22;12094;50.822;4.376;2022-11-15T17:58:54;12.50;99.90
23827;DHT22;12094;50.822;4.376;2022-11-15T18:01:31;12.50;99.90
23827;DHT22;12094;50.822;4.376;2022-11-15T18:04:01;12.50;99.90
23827;DHT22;12094;50.822;4.376;2022-11-15T18:06:30;12.50;99.90
23827;DHT22;12094;50.822;4.376;2022-11-15T18:08:59;12.50;99.90
23827;DHT22;12094;50.822;4.376;2022-11-15T18:11:30;12.50;99.90
23827;DHT22;12094;50.822;4.376;2022-11-15T18:14:00;12.60;99.90
23827;DHT22;12094;50.822;4.376;2022-11-15T18:16:30;12.50;99.90
23827;DHT22;12094;50.822;4.376;2022-11-15T18:18:58;12.50;99.90
23827;DHT22;12094;50.822;4.376;2022-11-15T18:21:30;12.60;99.90
23827;DHT22;12094;50.822;4.376;2022-11-15T18:24:01;12.50;99.90
23827;DHT22;12094;50.822;4.376;2022-11-15T18:26:29;12.60;99.90
23827;DHT22;12094;50.822;4.376;2022-11-15T18:29:02;12.50;99.90
23827;DHT22;12094;50.822;4.376;2022-11-15T18:31:29;12.50;99.90
23827;DHT22;12094;50.822;4.376;2022-11-15T18:33:58;12.60;99.90
23827;DHT22;12094;50.822;4.376;2022-11-15T18:36:30;12.60;99.90
23827;DHT22;12094;50.822;4.376;2022-11-15T18:39:00;12.60;99.90
23827;DHT22;12094;50.822;4.376;2022-11-15T18:41:31;12.50;99.90
23827;DHT22;12094;50.822;4.376;2022-11-15T18:44:00;12.60;99.90
23827;DHT22;12094;50.822;4.376;2022-11-15T18:46:30;12.60;99.90
23827;DHT22;12094;50.822;4.376;2022-11-15T18:48:59;12.60;99.90
23827;DHT22;12094;50.822;4.376;2022-11-15T18:51:28;12.60;99.90
23827;DHT22;12094;50.822;4.376;2022-11-15T18:53:58;12.60;99.90
23827;DHT22;12094;50.822;4.376;2022-11-15T18:56:27;12.60;99.90
23827;DHT22;12094;50.822;4.376;2022-11-15T18:58:57;12.70;99.90
23827;DHT22;12094;50.822;4.376;2022-11-15T19:01:29;12.60;99.90
23827;DHT22;12094;50.822;4.376;2022-11-15T19:04:37;12.70;99.90
23827;DHT22;12094;50.822;4.376;2022-11-15T19:07:09;12.60;99.90
23827;DHT22;12094;50.822;4.376;2022-11-15T19:09:39;12.70;99.90
23827;DHT22;12094;50.822;4.376;2022-11-15T19:12:06;12.70;99.90